Time;durP1;ratioP1;P1;durP2;ratioP2;P2;SDS_P1;SDS_P2;PMS_P1;PMS_P2;Temp;Humidity;BMP_temperature;BMP_pressure;BME280_temperature;BME280_humidity;BME280_pressure;Samples;Min_cycle;Max_cycle;Signal;HPM_P1;HPM_P2
2023/05/31 00:01:06;;;;;;;19.83;17.40;;;;;;;16.50;100.00;-16607.34;6244160;23;20240;-56
2023/05/31 00:03:33;;;;;;;26.30;17.23;;;;;;;16.53;100.00;-16608.00;6244073;23;20159;-56
2023/05/31 00:06:00;;;;;;;22.47;18.87;;;;;;;16.61;100.00;-16609.72;6244041;23;20161;-55
2023/05/31 00:08:28;;;;;;;25.07;19.50;;;;;;;16.68;100.00;-16611.31;6244387;23;20615;-56
2023/05/31 00:10:55;;;;;;;25.93;18.93;;;;;;;16.64;100.00;-16610.47;6244472;23;20607;-57
2023/05/31 00:13:22;;;;;;;34.90;19.87;;;;;;;16.65;100.00;-16931.69;6244064;23;20618;-55
2023/05/31 00:15:49;;;;;;;27.17;20.67;;;;;;;16.65;100.00;-16931.69;6244313;23;20164;-56
2023/05/31 00:18:16;;;;;;;25.83;21.03;;;;;;;16.54;100.00;-16929.25;6243864;23;20177;-57
2023/05/31 00:20:43;;;;;;;35.27;22.90;;;;;;;16.62;100.00;-16931.03;6243903;23;20164;-56
2023/05/31 00:23:10;;;;;;;35.40;24.70;;;;;;;16.74;100.00;-16933.53;6244023;23;20164;-55
2023/05/31 00:25:38;;;;;;;30.87;25.13;;;;;;;16.74;100.00;-16933.53;6243888;23;20157;-54
2023/05/31 00:28:05;;;;;;;39.23;25.57;;;;;;;16.60;100.00;-17251.53;6243904;23;20215;-56
2023/05/31 00:30:32;;;;;;;44.17;26.03;;;;;;;16.46;100.00;-17248.38;6243954;23;20163;-57
2023/05/31 00:32:58;;;;;;;45.80;26.10;;;;;;;16.51;100.00;-16928.59;6243964;23;20157;-56
2023/05/31 00:35:25;;;;;;;40.37;26.33;;;;;;;16.62;100.00;-16931.03;6244190;23;20207;-55
2023/05/31 00:37:54;;;;;;;46.47;26.30;;;;;;;16.61;100.00;-16930.81;6244144;23;20177;-56
2023/05/31 00:40:20;;;;;;;37.77;26.13;;;;;;;16.53;100.00;-16929.03;6243869;23;20168;-55
2023/05/31 00:42:49;;;;;;;48.20;29.10;;;;;;;16.58;100.00;-16930.16;6243638;23;20200;-55
2023/05/31 00:45:16;;;;;;;40.50;27.23;;;;;;;16.60;100.00;-16930.47;6244276;23;20235;-56
2023/05/31 00:47:44;;;;;;;37.80;28.20;;;;;;;16.58;100.00;-16930.16;6243683;23;20159;-55
2023/05/31 00:50:11;;;;;;;42.77;28.03;;;;;;;16.47;100.00;-16927.72;6244437;23;20219;-55
2023/05/31 00:52:38;;;;;;;42.43;28.40;;;;;;;16.54;100.00;-16929.16;6243718;23;20163;-56
2023/05/31 00:55:06;;;;;;;40.60;27.83;;;;;;;16.53;100.00;-17249.94;6244371;23;20241;-57
2023/05/31 00:57:33;;;;;;;39.73;28.13;;;;;;;16.46;100.00;-17248.38;6243603;23;20181;-55
2023/05/31 01:00:01;;;;;;;38.03;27.73;;;;;;;16.54;100.00;-17250.19;6243805;23;20187;-56
2023/05/31 01:02:32;;;;;;;35.90;28.10;;;;;;;16.57;100.00;-17250.84;6244704;23;20286;-57
2023/05/31 01:04:59;;;;;;;41.70;29.17;;;;;;;16.59;100.00;-17251.28;6244075;23;20161;-55
2023/05/31 01:07:26;;;;;;;44.00;29.70;;;;;;;16.65;100.00;-17252.66;6244151;23;20646;-57
2023/05/31 01:09:53;;;;;;;37.50;29.30;;;;;;;16.58;100.00;-17251.06;6244060;23;20157;-57
2023/05/31 01:12:26;;;;;;;45.27;29.90;;;;;;;16.76;100.00;-17255.09;6243827;23;20169;-57
2023/05/31 01:15:07;;;;;;;49.50;29.80;;;;;;;16.68;100.00;-17253.31;6244122;23;20632;-55
2023/05/31 01:17:46;;;;;;;50.47;30.07;;;;;;;16.69;100.00;-17253.44;6243508;23;20611;-56
2023/05/31 01:20:17;;;;;;;47.73;30.83;;;;;;;16.72;100.00;-17575.19;6243711;23;20238;-57
2023/05/31 01:22:57;;;;;;;42.47;28.97;;;;;;;16.74;100.00;-17575.53;6243946;23;20165;-56
2023/05/31 01:25:36;;;;;;;40.27;28.60;;;;;;;16.73;100.00;-17575.41;6244762;23;20179;-55
2023/05/31 01:28:07;;;;;;;40.90;27.43;;;;;;;16.75;100.00;-17575.88;6245427;23;20255;-55
2023/05/31 01:30:38;;;;;;;41.43;29.63;;;;;;;16.71;100.00;-17574.97;6245493;23;20165;-56
2023/05/31 01:33:08;;;;;;;35.33;27.30;;;;;;;16.72;100.00;-17575.06;6245515;23;20157;-55
2023/05/31 01:35:35;;;;;;;42.47;27.30;;;;;;;16.73;100.00;-17575.41;6245400;23;20232;-58
2023/05/31 01:38:02;;;;;;;32.77;26.40;;;;;;;16.67;100.00;-17574.03;6245403;23;20185;-56
2023/05/31 01:40:32;;;;;;;32.10;26.40;;;;;;;16.63;100.00;-17573.00;6245804;23;20484;-56
2023/05/31 01:42:59;;;;;;;34.13;26.97;;;;;;;16.71;100.00;-17574.84;6245388;23;20196;-57
2023/05/31 01:45:28;;;;;;;35.30;26.73;;;;;;;16.70;100.00;-17895.66;6245777;23;20163;-55
2023/05/31 01:48:02;;;;;;;40.47;27.60;;;;;;;16.68;100.00;-17574.16;6245676;23;20157;-54
2023/05/31 01:50:29;;;;;;;38.63;25.13;;;;;;;16.66;100.00;-17573.81;6245653;23;20592;-55
2023/05/31 01:52:56;;;;;;;38.10;26.67;;;;;;;16.40;100.00;-17888.75;6245155;23;20176;-55
2023/05/31 01:55:23;;;;;;;42.10;27.13;;;;;;;16.49;100.00;-17890.72;6245684;23;20167;-55
2023/05/31 01:57:52;;;;;;;40.97;25.47;;;;;;;16.48;100.00;-17569.69;6245263;23;20181;-55
2023/05/31 02:00:20;;;;;;;30.87;24.57;;;;;;;16.41;100.00;-17247.25;6245245;23;20157;-56
2023/05/31 02:02:49;;;;;;;43.03;25.23;;;;;;;16.43;100.00;-17247.72;6245923;23;20232;-55
2023/05/31 02:05:16;;;;;;;42.97;24.73;;;;;;;16.47;100.00;-17248.59;6245261;23;20157;-59
2023/05/31 02:07:45;;;;;;;37.17;24.27;;;;;;;16.55;100.00;-17571.28;6245201;23;20153;-54
2023/05/31 02:10:13;;;;;;;38.90;24.03;;;;;;;16.45;100.00;-17248.16;6219047;23;20619;-56
2023/05/31 02:12:40;;;;;;;43.97;24.20;;;;;;;16.06;100.00;-17560.03;6245609;23;20161;-55
2023/05/31 02:15:10;;;;;;;32.97;23.77;;;;;;;16.14;100.00;-17562.00;6245361;23;20153;-55
2023/05/31 02:17:40;;;;;;;38.07;24.60;;;;;;;16.38;100.00;-17567.38;6245592;23;20218;-56
2023/05/31 02:20:12;;;;;;;30.73;23.53;;;;;;;16.34;100.00;-17566.59;6245391;23;20157;-57
2023/05/31 02:22:42;;;;;;;37.93;23.47;;;;;;;16.41;100.00;-17568.06;6245445;23;20652;-56
2023/05/31 02:25:09;;;;;;;38.10;23.53;;;;;;;16.43;100.00;-17247.72;6245367;23;20584;-56
2023/05/31 02:27:37;;;;;;;31.70;24.03;;;;;;;16.31;100.00;-17565.91;6245437;23;20231;-56
2023/05/31 02:30:04;;;;;;;31.00;24.00;;;;;;;16.33;100.00;-17566.25;6245929;23;20159;-56
2023/05/31 02:32:35;;;;;;;34.70;24.30;;;;;;;16.63;100.00;-17573.13;6244965;23;20196;-57
2023/05/31 02:35:03;;;;;;;31.00;23.60;;;;;;;16.59;100.00;-17572.09;6245968;23;20620;-56
2023/05/31 02:37:31;;;;;;;37.53;22.40;;;;;;;16.41;100.00;-17568.06;6244704;23;20631;-55
2023/05/31 02:40:00;;;;;;;37.70;24.17;;;;;;;16.47;100.00;-17569.44;6244866;23;20219;-55
2023/05/31 02:42:27;;;;;;;34.00;23.67;;;;;;;16.45;100.00;-17889.78;6245052;23;20663;-55
2023/05/31 02:44:54;;;;;;;35.03;24.47;;;;;;;16.52;100.00;-17891.31;6244820;23;20167;-54
2023/05/31 02:47:21;;;;;;;30.07;24.07;;;;;;;16.61;100.00;-17893.44;6245244;23;20157;-56
2023/05/31 02:49:48;;;;;;;33.70;23.73;;;;;;;16.51;100.00;-17891.19;6245168;23;20619;-55
2023/05/31 02:52:15;;;;;;;35.73;24.03;;;;;;;16.53;100.00;-17891.66;6244826;23;20157;-55
2023/05/31 02:54:43;;;;;;;36.50;23.97;;;;;;;16.34;100.00;-17887.31;6244725;23;20248;-58
2023/05/31 02:57:10;;;;;;;36.50;23.83;;;;;;;16.51;100.00;-18212.00;6244589;23;20187;-57
2023/05/31 02:59:37;;;;;;;34.83;24.13;;;;;;;16.61;100.00;-18214.41;6244821;23;20163;-57
2023/05/31 03:02:04;;;;;;;49.93;24.80;;;;;;;16.52;100.00;-18212.13;6244567;23;20164;-56
2023/05/31 03:04:31;;;;;;;48.47;26.50;;;;;;;16.62;100.00;-18214.66;6244734;23;20161;-56
2023/05/31 03:06:58;;;;;;;30.17;24.30;;;;;;;16.71;100.00;-17895.91;6245094;23;20650;-56
2023/05/31 03:09:25;;;;;;;37.33;25.53;;;;;;;16.54;100.00;-17891.91;6244631;23;20163;-55
2023/05/31 03:11:53;;;;;;;31.90;25.67;;;;;;;16.90;100.00;-17900.22;6244924;23;20599;-56
2023/05/31 03:14:20;;;;;;;26.40;23.57;;;;;;;17.09;100.00;-17583.44;6244562;23;20157;-55
2023/05/31 03:16:48;;;;;;;25.83;23.17;;;;;;;17.61;100.00;-17273.94;6244698;23;20168;-56
2023/05/31 03:19:14;;;;;;;41.30;21.67;;;;;;;18.16;100.00;-18252.91;6243779;23;20197;-56
2023/05/31 03:21:42;;;;;;;24.93;22.47;;;;;;;18.99;100.00;-18272.53;6244851;23;20168;-56
2023/05/31 03:24:08;;;;;;;24.00;19.57;;;;;;;19.35;100.00;-11505.09;6244471;23;20188;-55
2023/05/31 03:26:35;;;;;;;35.33;19.07;;;;;;;19.41;100.00;-6658.22;6244536;23;20201;-56
2023/05/31 03:29:04;;;;;;;21.53;19.33;;;;;;;19.32;100.00;-5687.44;6217978;23;20161;-56
2023/05/31 03:31:31;;;;;;;19.97;17.97;;;;;;;19.31;100.00;-3098.69;6244943;23;20157;-56
2023/05/31 03:33:58;;;;;;;20.53;16.93;;;;;;;19.40;100.00;-1479.38;6244435;23;20157;-56
2023/05/31 03:36:24;;;;;;;35.73;18.93;;;;;;;19.52;100.00;3384.44;6244814;23;20157;-56
2023/05/31 03:38:52;;;;;;;28.83;17.93;;;;;;;19.50;100.00;5981.00;6244420;23;20173;-56
2023/05/31 03:41:19;;;;;;;38.37;18.43;;;;;;;19.33;100.00;-831.75;6244724;23;20672;-55
2023/05/31 03:43:46;;;;;;;29.50;17.47;;;;;;;19.50;100.00;465.41;6244048;23;20204;-56
2023/05/31 03:46:14;;;;;;;31.53;19.17;;;;;;;19.72;100.00;2413.03;6244630;23;20504;-57
2023/05/31 03:48:41;;;;;;;30.33;18.07;;;;;;;19.91;100.00;8912.75;6244307;23;20153;-56
2023/05/31 03:51:08;;;;;;;15.33;13.60;;;;;;;19.99;100.00;13145.44;6244749;23;20487;-56
2023/05/31 03:53:35;;;;;;;29.33;16.63;;;;;;;19.96;100.00;10540.38;6244232;23;20161;-56
2023/05/31 03:56:02;;;;;;;17.90;15.70;;;;;;;20.16;100.00;9893.84;6244493;23;20561;-56
2023/05/31 03:58:28;;;;;;;29.00;15.77;;;;;;;20.31;100.00;15761.84;6244076;23;20180;-57
2023/05/31 04:00:56;;;;;;;35.30;16.40;;;;;;;20.40;100.00;17722.13;6244333;23;20240;-56
2023/05/31 04:03:24;;;;;;;25.73;13.90;;;;;;;20.74;100.00;25251.84;6244614;23;20184;-56
2023/05/31 04:05:51;;;;;;;18.47;13.03;;;;;;;20.77;100.00;34429.53;6244332;23;20171;-55
2023/05/31 04:08:18;;;;;;;13.03;9.83;;;;;;;21.05;100.00;51233.09;6244489;23;20235;-56
2023/05/31 04:10:45;;;;;;;12.40;11.07;;;;;;;21.09;100.00;52556.88;6244574;23;20488;-56
2023/05/31 04:13:12;;;;;;;10.73;9.90;;;;;;;21.38;100.00;66814.84;6244138;23;20157;-57
2023/05/31 04:15:39;;;;;;;13.20;9.15;;;;;;;21.70;100.00;84816.78;6244425;23;20157;-57
2023/05/31 04:18:06;;;;;;;11.05;10.23;;;;;;;21.64;100.00;85140.97;6244000;23;20182;-56
2023/05/31 04:20:35;;;;;;;11.20;10.17;;;;;;;22.03;100.00;90207.75;6243870;23;20157;-56
2023/05/31 04:23:02;;;;;;;12.65;10.68;;;;;;;22.31;100.00;107012.16;6243932;23;20160;-57
2023/05/31 04:25:29;;;;;;;10.13;9.25;;;;;;;22.48;100.00;151689.25;6243851;23;20156;-57
2023/05/31 04:27:56;;;;;;;29.15;12.52;;;;;;;22.63;100.00;151728.78;6243848;23;20153;-56
2023/05/31 04:30:23;;;;;;;10.60;9.68;;;;;;;22.79;100.00;151767.09;6244071;23;20177;-57
2023/05/31 04:32:52;;;;;;;17.50;10.48;;;;;;;22.84;100.00;151781.09;6243835;23;20160;-56
2023/05/31 04:35:19;;;;;;;12.30;10.13;;;;;;;22.76;100.00;151760.69;6244292;23;20213;-57
2023/05/31 04:37:52;;;;;;;9.80;8.98;;;;;;;23.05;100.00;151834.69;6244111;23;20702;-57
2023/05/31 04:40:19;;;;;;;15.98;9.52;;;;;;;23.20;100.00;151873.00;6218708;23;20163;-56
2023/05/31 04:42:46;;;;;;;10.68;9.40;;;;;;;23.44;100.00;151931.72;6243668;23;20200;-56
2023/05/31 04:45:15;;;;;;;11.88;9.38;;;;;;;23.68;100.00;151992.94;6243863;23;20203;-58
2023/05/31 04:47:44;;;;;;;19.25;8.38;;;;;;;23.78;100.00;152018.50;6244238;23;20153;-57
2023/05/31 04:50:11;;;;;;;21.67;8.50;;;;;;;23.77;100.00;152015.94;6217467;23;20188;-57
2023/05/31 04:52:40;;;;;;;9.30;7.82;;;;;;;23.93;100.00;152056.75;6243855;23;20161;-57
2023/05/31 04:55:09;;;;;;;12.52;7.55;;;;;;;24.07;100.00;152092.53;6244169;23;20179;-57
2023/05/31 04:57:36;;;;;;;7.22;6.72;;;;;;;24.21;100.00;152127.06;6243703;23;20677;-56
2023/05/31 05:00:08;;;;;;;12.93;7.25;;;;;;;24.28;100.00;152143.63;6244533;23;20678;-56
2023/05/31 05:02:35;;;;;;;12.00;7.30;;;;;;;24.33;100.00;152157.69;6245737;23;20161;-58
2023/05/31 05:05:02;;;;;;;14.27;7.38;;;;;;;24.20;100.00;152123.22;6245833;23;20156;-55
2023/05/31 05:07:29;;;;;;;9.30;6.43;;;;;;;24.35;100.00;152161.53;6246845;23;20492;-56
2023/05/31 05:09:56;;;;;;;16.30;7.93;;;;;;;24.38;100.00;152170.47;6246223;23;20603;-55
2023/05/31 05:12:24;;;;;;;7.05;6.38;;;;;;;24.39;100.00;152171.75;6219486;23;20547;-55
2023/05/31 05:14:51;;;;;;;8.82;6.32;;;;;;;24.69;100.00;152248.38;6246074;23;20579;-55
2023/05/31 05:17:18;;;;;;;18.42;6.30;;;;;;;24.93;100.00;152309.72;6246126;23;20183;-54
2023/05/31 05:19:45;;;;;;;10.70;5.97;;;;;;;25.00;100.00;152327.59;6246146;23;20203;-56
2023/05/31 05:22:12;;;;;;;7.30;6.35;;;;;;;24.96;100.00;152317.38;6246111;23;20235;-58
2023/05/31 05:24:39;;;;;;;9.00;6.45;;;;;;;24.96;100.00;152317.38;6247208;23;20164;-61
2023/05/31 05:27:06;;;;;;;12.18;7.03;;;;;;;25.25;100.00;152390.19;6246497;23;20205;-61
2023/05/31 05:29:34;;;;;;;8.77;6.20;;;;;;;25.12;100.00;152355.72;6246845;23;20157;-61
2023/05/31 05:32:01;;;;;;;6.15;5.75;;;;;;;25.46;100.00;152442.63;6246454;23;20239;-61
2023/05/31 05:34:28;;;;;;;10.02;6.50;;;;;;;25.53;100.00;152460.53;6248079;23;20157;-63
2023/05/31 05:36:57;;;;;;;15.25;6.93;;;;;;;25.68;100.00;152498.84;6247549;23;20164;-63
2023/05/31 05:39:23;;;;;;;11.63;5.45;;;;;;;26.02;100.00;152584.50;6247134;23;20184;-63
2023/05/31 05:41:50;;;;;;;8.07;6.13;;;;;;;26.18;100.00;152624.16;6246180;23;20187;-62
2023/05/31 05:44:17;;;;;;;9.10;5.25;;;;;;;26.26;100.00;152645.94;6245011;23;20161;-63
2023/05/31 05:46:46;;;;;;;12.85;5.80;;;;;;;26.43;100.00;152688.13;6245926;23;20492;-62
2023/05/31 05:49:16;;;;;;;13.70;6.45;;;;;;;26.61;100.00;152734.13;6246533;23;20252;-62
2023/05/31 05:51:43;;;;;;;11.95;6.55;;;;;;;27.00;100.00;152831.38;6246505;23;20248;-64
2023/05/31 05:54:10;;;;;;;15.77;6.57;;;;;;;27.28;100.00;152903.03;6249557;23;20503;-64
2023/05/31 05:56:37;;;;;;;5.53;5.07;;;;;;;26.81;100.00;152785.31;6250120;23;20213;-64
2023/05/31 05:59:03;;;;;;;5.45;5.15;;;;;;;27.03;100.00;152839.09;6249150;23;20730;-65
2023/05/31 06:01:30;;;;;;;6.25;4.93;;;;;;;26.89;100.00;152804.53;6249158;23;20240;-63
2023/05/31 06:03:59;;;;;;;12.85;5.15;;;;;;;27.35;100.00;152919.66;6247610;23;20157;-64
2023/05/31 06:06:26;;;;;;;41.15;9.45;;;;;;;27.70;100.00;153010.56;6245816;23;20180;-65
2023/05/31 06:08:52;;;;;;;4.53;4.22;;;;;;;28.19;100.00;153133.44;6244941;23;20245;-64
2023/05/31 06:11:19;;;;;;;5.00;4.47;;;;;;;28.54;100.00;153223.09;6244252;23;20338;-65
2023/05/31 06:13:46;;;;;;;7.78;5.10;;;;;;;28.96;99.51;153328.13;6245313;23;20586;-64
2023/05/31 06:16:15;;;;;;;5.55;5.25;;;;;;;29.42;92.82;153446.00;6245264;23;20157;-64
2023/05/31 06:18:42;;;;;;;4.13;3.88;;;;;;;30.16;91.70;153631.84;6245793;23;20180;-63
2023/05/31 06:21:10;;;;;;;11.60;5.85;;;;;;;30.50;90.78;153717.78;6244925;23;20214;-64
2023/05/31 06:23:37;;;;;;;6.68;4.30;;;;;;;30.92;88.89;153825.47;6244829;23;20203;-63
2023/05/31 06:26:04;;;;;;;36.42;9.15;;;;;;;31.28;84.98;153917.81;6245159;23;20291;-64
2023/05/31 06:28:31;;;;;;;5.93;3.85;;;;;;;31.55;75.79;153984.56;6245571;23;20153;-63
2023/05/31 06:30:59;;;;;;;5.63;3.95;;;;;;;31.40;69.77;153946.06;6249281;23;20188;-63
2023/05/31 06:33:25;;;;;;;7.75;4.30;;;;;;;31.38;73.65;153940.91;6246211;23;20161;-63
2023/05/31 06:35:52;;;;;;;6.45;3.60;;;;;;;31.19;79.38;153894.72;6245237;23;20175;-64
2023/05/31 06:38:21;;;;;;;5.78;5.47;;;;;;;30.64;76.99;153754.91;6245106;23;20576;-62
2023/05/31 06:40:48;;;;;;;9.02;4.55;;;;;;;31.21;80.91;153899.88;6245260;23;20161;-62
2023/05/31 06:43:16;;;;;;;13.95;5.40;;;;;;;32.10;78.26;154125.72;6244856;23;20255;-63
2023/05/31 06:45:45;;;;;;;6.75;4.07;;;;;;;32.41;79.34;154202.72;6219140;23;20165;-64
2023/05/31 06:48:14;;;;;;;7.25;4.85;;;;;;;32.64;75.73;154261.78;6243421;23;20172;-63
2023/05/31 06:50:44;;;;;;;7.75;3.67;;;;;;;32.67;68.41;154269.50;6243879;23;20245;-65
2023/05/31 06:53:12;;;;;;;4.22;3.78;;;;;;;32.41;67.91;154202.72;6244068;23;20157;-63
2023/05/31 06:55:43;;;;;;;9.55;8.52;;;;;;;32.02;71.77;154105.16;6244415;23;20240;-63
2023/05/31 06:58:11;;;;;;;18.17;5.85;;;;;;;31.71;79.34;154025.59;6243982;23;20175;-63
2023/05/31 07:00:38;;;;;;;6.85;4.82;;;;;;;31.26;78.84;153911.41;6245141;23;20638;-63
2023/05/31 07:03:06;;;;;;;5.15;4.75;;;;;;;30.76;79.60;153784.44;6244521;23;20592;-64
2023/05/31 07:05:33;;;;;;;3.78;3.58;;;;;;;30.59;74.56;153740.84;6244561;23;20157;-64
2023/05/31 07:08:00;;;;;;;5.32;3.70;;;;;;;30.79;74.56;153793.41;6244622;23;20168;-65
2023/05/31 07:10:27;;;;;;;3.38;3.10;;;;;;;31.08;77.51;153866.53;6244466;23;20215;-63
2023/05/31 07:12:55;;;;;;;5.90;3.70;;;;;;;31.10;73.13;153870.41;6244394;23;20160;-65
2023/05/31 07:15:22;;;;;;;3.80;3.50;;;;;;;31.07;66.75;153863.94;6245114;23;20469;-64
2023/05/31 07:17:49;;;;;;;11.07;4.82;;;;;;;31.02;72.90;153851.13;6245114;23;20558;-64
2023/05/31 07:20:16;;;;;;;3.35;3.15;;;;;;;31.09;76.67;153869.09;6245730;23;20500;-66
2023/05/31 07:22:43;;;;;;;4.90;3.90;;;;;;;30.95;76.33;153833.13;6245227;23;20196;-64
2023/05/31 07:25:10;;;;;;;3.60;3.30;;;;;;;30.60;68.13;153743.38;6244636;23;20218;-64
2023/05/31 07:27:37;;;;;;;3.28;3.08;;;;;;;29.84;47.30;153552.31;6244830;23;20161;-64
2023/05/31 07:30:07;;;;;;;13.13;4.13;;;;;;;30.21;63.95;153645.97;6244396;23;20165;-62
2023/05/31 07:32:34;;;;;;;6.93;3.63;;;;;;;30.30;60.16;153669.00;6244981;23;20161;-64
2023/05/31 07:35:01;;;;;;;24.23;6.15;;;;;;;30.55;61.92;153731.88;6245739;23;20252;-64
2023/05/31 07:37:28;;;;;;;7.13;3.90;;;;;;;30.60;52.20;153744.66;6244015;23;20183;-64
2023/05/31 07:39:55;;;;;;;3.20;3.00;;;;;;;30.67;51.16;153761.34;6244884;23;20500;-64
2023/05/31 07:42:32;;;;;;;10.57;4.40;;;;;;;30.50;50.39;153717.78;6246109;23;20227;-65
2023/05/31 07:45:00;;;;;;;5.32;4.35;;;;;;;30.60;53.43;153743.38;6245822;23;20619;-65
2023/05/31 07:47:28;;;;;;;12.20;7.13;;;;;;;30.18;44.41;153638.25;6245835;23;20608;-66
2023/05/31 07:49:58;;;;;;;8.80;3.88;;;;;;;30.65;53.25;153757.50;6244781;23;20661;-65
2023/05/31 07:52:25;;;;;;;3.70;3.40;;;;;;;30.75;45.74;153783.16;6244506;23;20160;-64
2023/05/31 07:54:52;;;;;;;2.85;2.65;;;;;;;30.76;45.68;153784.44;6244740;23;20662;-64
2023/05/31 07:57:18;;;;;;;5.45;3.63;;;;;;;30.84;48.94;153804.94;6216525;23;20167;-65
2023/05/31 07:59:46;;;;;;;9.65;3.75;;;;;;;30.98;51.00;153840.81;6244080;23;20211;-65
2023/05/31 08:02:13;;;;;;;7.10;3.90;;;;;;;31.21;47.44;153898.59;6244574;23;20449;-65
2023/05/31 08:04:41;;;;;;;4.25;3.45;;;;;;;31.43;43.08;153953.72;6244920;23;20161;-65
2023/05/31 08:07:08;;;;;;;3.30;2.67;;;;;;;31.78;45.46;154042.31;6245058;23;20240;-65
2023/05/31 08:09:35;;;;;;;6.82;2.83;;;;;;;32.22;44.22;154155.22;6244761;23;20540;-64
2023/05/31 08:12:02;;;;;;;6.03;3.97;;;;;;;32.45;38.01;154212.97;6246495;23;20215;-64
2023/05/31 08:14:30;;;;;;;3.47;3.17;;;;;;;32.30;35.10;154174.47;6250512;23;20164;-65
2023/05/31 08:16:59;;;;;;;3.25;2.72;;;;;;;31.64;35.80;154007.66;6221894;23;20255;-64
2023/05/31 08:19:26;;;;;;;3.50;2.50;;;;;;;31.25;37.02;153910.13;6245475;23;20263;-66
2023/05/31 08:21:55;;;;;;;3.25;2.65;;;;;;;30.65;34.69;153757.50;6244619;23;20236;-64
2023/05/31 08:24:22;;;;;;;2.92;2.72;;;;;;;30.15;37.00;153629.28;6244609;23;20161;-64
2023/05/31 08:26:50;;;;;;;2.50;2.40;;;;;;;30.22;36.60;153648.47;6247377;23;20163;-65
2023/05/31 08:29:17;;;;;;;4.32;2.80;;;;;;;29.96;38.00;153581.84;6244091;23;20659;-64
2023/05/31 08:31:44;;;;;;;2.58;2.47;;;;;;;29.10;38.47;153362.72;6244726;23;20598;-64
2023/05/31 08:34:11;;;;;;;2.80;2.58;;;;;;;29.53;42.60;153471.63;6243676;23;20157;-63
2023/05/31 08:36:40;;;;;;;6.43;2.70;;;;;;;30.04;39.93;153602.38;6244459;23;20176;-64
2023/05/31 08:39:08;;;;;;;4.15;2.70;;;;;;;30.36;38.71;153683.09;6244053;23;20212;-63
2023/05/31 08:41:47;;;;;;;4.10;2.70;;;;;;;30.10;37.85;153617.72;6244578;23;20168;-63
2023/05/31 08:44:15;;;;;;;3.20;2.92;;;;;;;30.22;39.13;153648.47;6245714;23;20199;-63
2023/05/31 08:46:45;;;;;;;3.22;2.75;;;;;;;29.56;38.65;153480.59;6244642;23;20163;-63
2023/05/31 08:49:15;;;;;;;3.00;2.50;;;;;;;28.82;40.10;153293.53;6245934;23;20153;-64
2023/05/31 08:51:45;;;;;;;3.78;2.70;;;;;;;29.08;45.19;153358.84;6244466;23;20165;-63
2023/05/31 08:54:15;;;;;;;3.03;2.90;;;;;;;29.93;46.39;153574.16;6243786;23;20196;-64
2023/05/31 08:56:45;;;;;;;2.60;2.50;;;;;;;30.65;46.95;153756.22;6244821;23;20618;-64
2023/05/31 08:59:12;;;;;;;4.78;2.63;;;;;;;30.83;43.69;153802.38;6244331;23;20252;-63
2023/05/31 09:01:39;;;;;;;7.40;3.08;;;;;;;31.11;49.48;153872.91;6243043;23;20168;-65
2023/05/31 09:04:06;;;;;;;4.22;3.92;;;;;;;31.22;45.50;153902.44;6243755;23;20206;-65
2023/05/31 09:06:34;;;;;;;4.47;3.40;;;;;;;31.29;45.61;153920.38;6244026;23;20253;-63
2023/05/31 09:09:01;;;;;;;5.32;2.28;;;;;;;31.28;41.60;153916.53;6243695;23;20161;-64
2023/05/31 09:11:30;;;;;;;3.20;3.00;;;;;;;31.11;45.18;153872.91;6244065;23;20548;-64
2023/05/31 09:13:57;;;;;;;4.93;2.60;;;;;;;30.95;45.15;153833.13;6243736;23;20240;-64
2023/05/31 09:16:24;;;;;;;2.92;2.60;;;;;;;30.72;41.39;153774.19;6244335;23;20469;-64
2023/05/31 09:19:02;;;;;;;3.00;2.38;;;;;;;30.32;40.16;153674.13;6243639;23;20256;-63
2023/05/31 09:21:30;;;;;;;3.25;2.80;;;;;;;29.71;43.83;153517.72;6244031;23;20165;-65
2023/05/31 09:23:59;;;;;;;6.03;5.15;;;;;;;30.03;49.98;153598.53;6243934;23;20173;-65
2023/05/31 09:26:26;;;;;;;5.35;4.95;;;;;;;30.51;49.15;153720.34;6244953;23;20196;-65
2023/05/31 09:32:13;;;;;;;2.55;2.35;;;;;;;30.60;39.14;153743.38;6243584;23;20149;-58
2023/05/31 09:34:40;;;;;;;2.53;2.42;;;;;;;31.04;41.21;153854.97;6243637;23;20161;-59
2023/05/31 09:37:07;;;;;;;2.95;2.78;;;;;;;31.90;43.43;154074.38;6243413;23;20173;-58
2023/05/31 09:39:35;;;;;;;3.72;2.80;;;;;;;32.27;37.16;154166.78;6243572;23;20227;-58
2023/05/31 09:42:01;;;;;;;3.28;2.75;;;;;;;32.88;42.60;154323.44;6242986;23;20253;-58
2023/05/31 09:44:29;;;;;;;6.20;3.72;;;;;;;33.11;37.21;154379.88;6243195;23;20163;-59
2023/05/31 09:46:56;;;;;;;4.78;2.70;;;;;;;33.07;36.72;154372.19;6244758;23;20619;-58
2023/05/31 09:49:28;;;;;;;3.53;2.75;;;;;;;32.90;36.34;154328.53;6245498;23;20153;-59
2023/05/31 09:51:54;;;;;;;3.75;2.70;;;;;;;33.39;39.55;154451.84;6244926;23;20172;-57
2023/05/31 09:54:25;;;;;;;7.68;3.50;;;;;;;32.92;39.80;154333.69;6244952;23;20167;-58
2023/05/31 09:56:52;;;;;;;5.47;3.00;;;;;;;32.79;39.36;154300.31;6245223;23;20584;-59
2023/05/31 09:59:19;;;;;;;3.33;3.03;;;;;;;32.49;40.99;154224.53;6245387;23;20204;-58
2023/05/31 10:01:46;;;;;;;3.05;2.38;;;;;;;32.40;42.13;154201.44;6245278;23;20157;-60
2023/05/31 10:04:13;;;;;;;2.50;2.40;;;;;;;32.58;40.64;154246.34;6245864;23;20240;-59
2023/05/31 10:06:42;;;;;;;2.80;2.60;;;;;;;32.22;37.11;154155.22;6245075;23;20240;-59
2023/05/31 10:09:09;;;;;;;3.17;2.42;;;;;;;31.88;39.84;154069.22;6245802;23;20672;-58
2023/05/31 10:11:39;;;;;;;3.90;2.70;;;;;;;31.94;44.03;154083.34;6245481;23;20560;-58
2023/05/31 10:14:12;;;;;;;3.15;3.05;;;;;;;32.03;42.54;154107.72;6245002;23;20169;-58
2023/05/31 10:16:46;;;;;;;3.03;2.20;;;;;;;31.97;38.63;154091.03;6245006;23;20241;-59
2023/05/31 10:19:18;;;;;;;2.67;2.58;;;;;;;32.01;41.86;154101.28;6244942;23;20157;-58
2023/05/31 10:21:48;;;;;;;2.97;2.70;;;;;;;32.08;38.46;154119.28;6244951;23;20161;-58
2023/05/31 10:24:21;;;;;;;4.55;3.17;;;;;;;32.33;42.88;154182.19;6244809;23;20161;-58
2023/05/31 10:27:03;;;;;;;2.60;2.50;;;;;;;32.27;41.92;154166.78;6244996;23;20580;-57
2023/05/31 10:29:34;;;;;;;2.65;2.45;;;;;;;32.15;39.36;154138.56;6244764;23;20211;-57
2023/05/31 10:32:10;;;;;;;2.65;2.33;;;;;;;32.15;37.17;154138.56;6245139;23;20563;-59
2023/05/31 10:34:40;;;;;;;3.63;2.30;;;;;;;32.44;38.08;154210.41;6245065;23;20214;-60
2023/05/31 10:37:10;;;;;;;3.30;3.10;;;;;;;32.77;43.50;154295.16;6244789;23;20175;-58
2023/05/31 10:39:45;;;;;;;3.13;2.70;;;;;;;32.84;36.93;154311.88;6244463;23;20196;-57
2023/05/31 10:42:22;;;;;;;2.20;2.03;;;;;;;31.71;37.09;154025.59;6244507;23;20227;-58
2023/05/31 10:44:58;;;;;;;2.33;2.22;;;;;;;31.70;37.30;154023.03;6244830;23;20222;-58
2023/05/31 10:47:33;;;;;;;3.28;2.15;;;;;;;31.23;38.37;153903.75;6244931;23;20179;-57
2023/05/31 10:50:03;;;;;;;2.60;2.40;;;;;;;31.16;39.06;153885.75;6244457;23;20188;-58
2023/05/31 10:52:31;;;;;;;2.28;2.08;;;;;;;30.40;32.74;153693.34;6245372;23;20165;-57
2023/05/31 10:55:17;;;;;;;2.10;2.00;;;;;;;29.66;33.39;153504.94;6244190;23;20623;-58
2023/05/31 10:57:44;;;;;;;7.25;3.10;;;;;;;29.60;38.74;153489.56;6244187;23;20165;-57
2023/05/31 11:00:12;;;;;;;4.20;2.30;;;;;;;29.78;41.57;153535.69;6244015;23;20219;-57
2023/05/31 11:02:47;;;;;;;2.40;2.30;;;;;;;29.89;40.84;153563.91;6244373;23;20164;-60
2023/05/31 11:05:21;;;;;;;2.30;2.15;;;;;;;30.05;44.99;153603.63;6244926;23;20161;-58
2023/05/31 11:07:50;;;;;;;3.53;3.33;;;;;;;30.07;43.26;153610.06;6244718;23;20160;-58
2023/05/31 11:10:28;;;;;;;2.20;2.10;;;;;;;29.74;39.29;153525.44;6244397;23;20235;-57
2023/05/31 11:12:58;;;;;;;2.63;2.03;;;;;;;29.44;43.17;153449.88;6245056;23;20615;-58
2023/05/31 11:15:39;;;;;;;3.50;2.50;;;;;;;29.17;51.50;153380.63;6244595;23;20161;-58
2023/05/31 11:18:09;;;;;;;3.03;2.78;;;;;;;28.20;94.00;153136.03;6243866;23;20168;-58
2023/05/31 11:20:37;;;;;;;3.50;3.30;;;;;;;26.92;100.00;152810.91;6244273;23;20239;-57
2023/05/31 11:23:40;;;;;;;6.38;3.55;;;;;;;27.05;100.00;152845.47;6244407;23;20172;-58